createdAt,value
2023-04-08T00:00:52.452Z,72.67
2023-04-08T00:05:53.991Z,72.82
2023-04-08T00:10:55.711Z,73.05
2023-04-08T00:15:57.806Z,73.13
2023-04-08T00:20:59.947Z,72.79
2023-04-08T00:26:01.478Z,72.18
2023-04-08T00:31:02.973Z,72.02
2023-04-08T00:36:04.787Z,72.05
2023-04-08T00:41:06.456Z,72.15
2023-04-08T00:46:09.319Z,71.93
2023-04-08T00:51:11.229Z,71.87
2023-04-08T00:56:12.793Z,71.95
2023-04-08T01:01:41.147Z,72.55
2023-04-08T01:07:16.688Z,72.69
2023-04-08T01:12:27.308Z,72.30
2023-04-08T01:17:30.692Z,71.94
2023-04-08T01:23:00.447Z,72.06
2023-04-08T01:28:06.073Z,71.98
2023-04-08T01:33:08.522Z,72.03
2023-04-08T01:38:14.111Z,72.15
2023-04-08T01:43:17.924Z,72.39
2023-04-08T01:48:19.424Z,73.02
2023-04-08T01:53:21.705Z,73.19
2023-04-08T01:58:26.495Z,73.23
2023-04-08T02:03:29.958Z,72.81
2023-04-08T02:08:35.022Z,72.83
2023-04-08T02:13:36.607Z,73.00
2023-04-08T02:18:49.569Z,73.40
2023-04-08T02:23:51.395Z,73.81
2023-04-08T02:28:55.337Z,74.06
2023-04-08T02:33:58.117Z,73.73
2023-04-08T02:38:59.658Z,73.73
2023-04-08T02:44:01.193Z,73.99
2023-04-08T02:49:02.732Z,74.08
2023-04-08T02:54:04.282Z,76.34
2023-04-08T02:59:05.764Z,76.96
2023-04-08T03:04:07.250Z,76.84
2023-04-08T03:09:09.669Z,77.58
2023-04-08T03:14:11.166Z,78.23
2023-04-08T03:19:12.671Z,77.34
2023-04-08T03:24:14.211Z,77.58
2023-04-08T03:29:15.694Z,77.94
2023-04-08T03:34:17.189Z,77.70
2023-04-08T03:39:19.368Z,77.88
2023-04-08T03:44:20.839Z,77.93
2023-04-08T03:49:22.529Z,77.84
2023-04-08T03:54:24.015Z,77.91
2023-04-08T03:59:25.839Z,77.77
2023-04-08T04:04:27.479Z,78.28
2023-04-08T04:09:29.280Z,78.40
2023-04-08T04:14:30.836Z,78.21
2023-04-08T04:19:32.592Z,78.32
2023-04-08T04:24:34.099Z,78.96
2023-04-08T04:29:35.863Z,78.55
2023-04-08T04:34:37.366Z,78.18
2023-04-08T04:39:38.858Z,78.67
2023-04-08T04:44:40.392Z,78.75
2023-04-08T04:49:42.171Z,78.54
2023-04-08T04:54:43.989Z,78.59
2023-04-08T04:59:45.503Z,78.00
2023-04-08T05:04:47.043Z,78.07
2023-04-08T05:09:48.882Z,77.64
2023-04-08T05:14:50.431Z,77.82
2023-04-08T05:19:53.405Z,77.52
2023-04-08T05:24:54.906Z,76.81
2023-04-08T05:29:56.376Z,76.58
2023-04-08T05:34:57.848Z,76.25
2023-04-08T05:39:59.335Z,76.65
2023-04-08T05:45:01.132Z,76.39
2023-04-08T05:50:02.737Z,76.23
2023-04-08T05:55:06.277Z,75.89
2023-04-08T06:00:10.493Z,75.44
2023-04-08T06:05:12.146Z,75.57
2023-04-08T06:10:13.767Z,75.13
2023-04-08T06:15:16.683Z,74.89
2023-04-08T06:20:18.242Z,74.66
2023-04-08T06:25:19.734Z,74.40
2023-04-08T06:30:28.107Z,73.91
2023-04-08T06:35:29.850Z,73.15
2023-04-08T06:40:31.388Z,72.77
2023-04-08T06:45:32.948Z,72.31
2023-04-08T06:50:34.616Z,72.17
2023-04-08T06:55:36.102Z,71.73
2023-04-08T07:00:39.047Z,71.90
2023-04-08T07:05:42.235Z,70.42
2023-04-08T07:10:44.916Z,70.32
2023-04-08T07:15:46.858Z,70.33
2023-04-08T07:20:53.980Z,70.24
2023-04-08T07:25:55.520Z,70.18
2023-04-08T07:30:57.490Z,70.03
2023-04-08T07:35:59.645Z,69.90
2023-04-08T07:41:01.422Z,69.41
2023-04-08T07:46:07.278Z,69.50
2023-04-08T07:51:11.375Z,69.15
2023-04-08T07:56:14.898Z,68.56
2023-04-08T08:01:19.061Z,68.66
2023-04-08T08:06:20.923Z,68.62
2023-04-08T08:11:22.715Z,68.63
2023-04-08T08:16:27.402Z,68.03
2023-04-08T08:21:29.065Z,66.41
2023-04-08T08:26:30.972Z,66.39
2023-04-08T08:31:32.486Z,66.61
2023-04-08T08:36:34.896Z,66.35
2023-04-08T08:41:37.824Z,67.16
2023-04-08T08:46:46.926Z,66.49
2023-04-08T08:51:49.110Z,67.11
2023-04-08T08:56:50.634Z,66.11
2023-04-08T09:01:52.204Z,65.74
2023-04-08T09:07:10.742Z,65.76
2023-04-08T09:12:12.249Z,64.61
2023-04-08T09:17:14.620Z,64.03
2023-04-08T09:22:16.563Z,64.73
2023-04-08T09:27:34.318Z,64.31
2023-04-08T09:33:07.154Z,63.62
2023-04-08T09:38:09.562Z,63.15
2023-04-08T09:43:13.713Z,63.34
2023-04-08T09:48:27.140Z,62.74
2023-04-08T09:53:38.319Z,61.63
2023-04-08T09:58:46.275Z,61.82
2023-04-08T10:03:52.786Z,61.93
2023-04-08T10:08:56.566Z,61.38
2023-04-08T10:13:58.116Z,60.30
2023-04-08T10:19:00.098Z,59.39
2023-04-08T10:24:11.996Z,59.32
2023-04-08T10:29:19.702Z,60.07
2023-04-08T10:34:25.026Z,60.17
2023-04-08T10:39:27.472Z,59.98
2023-04-08T10:44:29.093Z,59.67
2023-04-08T10:49:34.877Z,59.17
2023-04-08T10:54:38.566Z,58.61
2023-04-08T10:59:40.118Z,58.76
2023-04-08T11:04:43.040Z,58.30
2023-04-08T11:09:44.988Z,57.10
2023-04-08T11:14:47.802Z,55.94
2023-04-08T11:19:50.478Z,56.00
2023-04-08T11:24:52.260Z,57.04
2023-04-08T11:29:57.475Z,54.84
2023-04-08T11:35:04.590Z,53.95
2023-04-08T11:40:12.898Z,53.70
2023-04-08T11:45:16.671Z,53.91
2023-04-08T11:50:25.904Z,52.75
2023-04-08T11:55:28.704Z,51.43
2023-04-08T12:00:37.784Z,52.32
2023-04-08T12:05:39.618Z,52.17
2023-04-08T12:10:41.397Z,50.99
2023-04-08T12:15:43.011Z,51.25
2023-04-08T12:20:44.527Z,51.46
2023-04-08T12:25:46.030Z,48.98
2023-04-08T12:30:47.936Z,50.58
2023-04-08T12:35:49.569Z,49.91
2023-04-08T12:40:51.204Z,48.85
2023-04-08T12:45:52.753Z,47.75
2023-04-08T12:50:54.392Z,46.97
2023-04-08T12:55:57.537Z,46.08
2023-04-08T13:00:59.081Z,46.37
2023-04-08T13:06:00.645Z,46.55
2023-04-08T13:11:02.252Z,46.49
2023-04-08T13:16:04.195Z,47.47
2023-04-08T13:21:06.145Z,44.51
2023-04-08T13:26:07.893Z,45.66
2023-04-08T13:31:09.440Z,45.05
2023-04-08T13:36:10.939Z,46.03
2023-04-08T13:41:12.451Z,45.31
2023-04-08T13:46:14.038Z,44.92
2023-04-08T13:51:15.655Z,44.95
2023-04-08T13:56:17.120Z,44.71
2023-04-08T14:01:18.681Z,45.39
2023-04-08T14:06:20.311Z,43.24
2023-04-08T14:11:21.869Z,44.33
2023-04-08T14:16:23.423Z,43.86
2023-04-08T14:21:24.951Z,43.32
2023-04-08T14:26:27.272Z,44.19
2023-04-08T14:31:29.117Z,44.40
2023-04-08T14:36:31.721Z,43.80
2023-04-08T14:41:33.274Z,44.58
2023-04-08T14:46:34.916Z,45.05
2023-04-08T14:51:38.094Z,45.02
2023-04-08T14:56:42.645Z,46.19
2023-04-08T15:01:45.104Z,46.10
2023-04-08T15:06:46.964Z,46.12
2023-04-08T15:11:48.542Z,46.79
2023-04-08T15:16:50.240Z,46.99
2023-04-08T15:21:51.748Z,47.46
2023-04-08T15:26:56.299Z,48.40
2023-04-08T15:31:57.947Z,49.07
2023-04-08T15:36:59.468Z,48.88
2023-04-08T15:42:01.571Z,48.58
2023-04-08T15:47:03.467Z,48.67
2023-04-08T15:52:05.945Z,48.60
2023-04-08T15:57:07.435Z,49.32
2023-04-08T16:02:09.020Z,49.23
2023-04-08T16:07:11.065Z,49.19
2023-04-08T16:12:14.771Z,49.79
2023-04-08T16:17:16.563Z,49.98
2023-04-08T16:22:18.287Z,50.46
2023-04-08T16:27:19.796Z,50.50
2023-04-08T16:32:21.515Z,50.82
2023-04-08T16:37:23.028Z,51.17
2023-04-08T16:42:24.922Z,51.73
2023-04-08T16:47:27.615Z,52.01
2023-04-08T16:52:29.256Z,52.65
2023-04-08T16:57:31.058Z,52.67
2023-04-08T17:02:32.930Z,52.87
2023-04-08T17:07:34.545Z,53.42
2023-04-08T17:12:36.371Z,53.69
2023-04-08T17:17:39.594Z,53.96
2023-04-08T17:22:41.278Z,54.38
2023-04-08T17:27:42.792Z,54.84
2023-04-08T17:32:44.350Z,55.00
2023-04-08T17:37:46.023Z,55.37
2023-04-08T17:42:47.627Z,55.46
2023-04-08T17:47:49.288Z,56.28
2023-04-08T17:52:51.101Z,56.81
2023-04-08T17:57:52.872Z,57.35
2023-04-08T18:02:54.715Z,58.07
2023-04-08T18:07:59.400Z,58.06
2023-04-08T18:13:11.304Z,58.29
2023-04-08T18:18:18.571Z,58.28
2023-04-08T18:23:20.290Z,58.32
2023-04-08T18:28:22.888Z,58.58
2023-04-08T18:33:24.428Z,58.53
2023-04-08T18:38:25.901Z,58.98
2023-04-08T18:43:28.746Z,59.49
2023-04-08T18:48:30.512Z,59.75
2023-04-08T18:53:38.654Z,60.59
2023-04-08T18:58:40.267Z,61.34
2023-04-08T19:03:43.929Z,62.34
2023-04-08T19:08:48.223Z,62.95
2023-04-08T19:13:52.302Z,64.71
2023-04-08T19:18:55.000Z,66.21
2023-04-08T19:23:57.285Z,66.13
2023-04-08T19:28:58.744Z,66.33
2023-04-08T19:34:02.409Z,67.14
2023-04-08T19:39:11.784Z,67.37
2023-04-08T19:44:21.810Z,68.28
2023-04-08T19:49:24.480Z,68.40
2023-04-08T19:54:25.963Z,68.77
2023-04-08T19:59:27.526Z,68.49
2023-04-08T20:04:29.457Z,68.76
2023-04-08T20:09:32.675Z,68.63
2023-04-08T20:14:35.890Z,69.89
2023-04-08T20:19:37.559Z,69.48
2023-04-08T20:24:39.066Z,70.74
2023-04-08T20:29:42.717Z,69.86
2023-04-08T20:34:44.724Z,70.82
2023-04-08T20:39:46.518Z,71.23
2023-04-08T20:44:49.134Z,70.87
2023-04-08T20:49:50.663Z,71.93
2023-04-08T20:54:52.447Z,72.50
2023-04-08T20:59:56.119Z,73.45
2023-04-08T21:04:57.520Z,74.13
2023-04-08T21:09:59.260Z,74.44
2023-04-08T21:15:01.197Z,75.00
2023-04-08T21:20:03.077Z,72.41
2023-04-08T21:25:05.605Z,72.47
2023-04-08T21:30:07.881Z,73.92
2023-04-08T21:35:10.547Z,73.81
2023-04-08T21:40:13.501Z,75.62
2023-04-08T21:45:15.867Z,76.27
2023-04-08T21:50:17.433Z,75.93
2023-04-08T21:55:19.577Z,76.22
2023-04-08T22:00:21.178Z,76.05
2023-04-08T22:05:23.581Z,76.11
2023-04-08T22:10:25.801Z,76.21
2023-04-08T22:15:27.983Z,76.46
2023-04-08T22:20:29.531Z,76.90
2023-04-08T22:25:31.075Z,76.19
2023-04-08T22:30:32.840Z,73.97
2023-04-08T22:35:35.794Z,74.14
2023-04-08T22:40:37.438Z,74.07
2023-04-08T22:45:38.949Z,75.94
2023-04-08T22:50:41.272Z,73.84
2023-04-08T22:55:42.815Z,74.73
2023-04-08T23:00:51.202Z,74.10
2023-04-08T23:05:52.813Z,74.78
2023-04-08T23:10:55.093Z,73.68
2023-04-08T23:15:57.653Z,73.19
2023-04-08T23:20:59.259Z,72.92
2023-04-08T23:26:00.866Z,72.18
2023-04-08T23:31:05.242Z,72.29
2023-04-08T23:36:08.626Z,74.40
2023-04-08T23:41:10.291Z,74.03
2023-04-08T23:46:11.815Z,73.55
2023-04-08T23:51:13.619Z,72.64
2023-04-08T23:56:15.528Z,72.24
